Startpagina
METAR-TAF:

METAR-TAF

Vliegvelden :

Flughafen Düsseldorf

Düsseldorf, Duitsland

breedte: 51-18N, lengte: 006-46E, hoogte: 45 m

Actueel weer

Dit bericht is 23 minuten geleden gemaakt, om 15:20 UTC
Wind 5 kt uit het noorden
Temperatuur 3°C
Vochtigheid 56%
Druk 1018 hPa
Zicht 10 km of meer
geen wolken onder 1500 m en geen cumulonimbus

METAR: EDDL 201520Z 01005KT CAVOK 03/M05 Q1018 NOSIG

Tijdstip: 16:43 (15:43 UTC)

Verwachting

Dit bericht is 4 uur en het 43 minuten geleden gemaakt, om 11:00 UTC
Verwachting geldig van 20 om 12 UTC tot 21 om 18 UTC
Wind 5 kt uit het oosten
Zicht 10 km of meer
geen wolken onder 1500 m en geen cumulonimbus
Wijzigt naar
van 20 om 13 UTC tot 20 om 16 UTC
Wind 5 kt uit het noordnoordoosten
Wijzigt naar
van 20 om 18 UTC tot 20 om 21 UTC
Wind 3 kt uit variabele richting
Wijzigt naar
van 21 om 10 UTC tot 21 om 13 UTC
Wind 5 kt uit het zuidzuidwesten

TAF: EDDL 201100Z 2012/2118 08005KT CAVOK BECMG 2013/2016 02005KT BECMG 2018/2021 VRB03KT BECMG 2110/2113 20005KT

Waarnemingen en weersverwachtingen van meer dan 4000 vliegvelden (METAR en TAF).

De beschikbare stations zijn de gele en rode punten op de kaart.

Ga met uw muis naar het station om de naam te zien.

Klik dan om waarnemingen en weersverwachtingen te zien.

kaart wijzigen: klik op de groene knoppen met een zwart kruis om in te zoomen, op de groene knop met een streepje om uit te zoomen of op de groene pijlen voor aangrenzende kaarten.


METAR-TAF: